Crestview, FL

1:36 PM CDT on May 06, 2015 (GMT -0500)
Hurlburt | | Change Station
CLOSE
Current Station
Airport
Location: Hurlburt Field,
Elevation: 39 ft
Nearby Weather Stations

Elev 39 ft 30.43 °N, 86.69 °W | Updated 38 minutes ago

Partly Cloudy
Partly Cloudy
80 °F
Feels Like 81 °F
N
12
Wind Variable Wind from South

Today
High -- | Low -- °F
--% Chance of Precip.
Yesterday
High -- | Low -- °F
Precip. -- in
5:58 AM 7:28 PM
Waning Gibbous, 93% visible
Pressure 30.10 in
Visibility 10.0 miles
Clouds Few 20000 ft
Heat Index 81 °F
Dew Point 60 °F
Humidity 49%
Rainfall 0.00 in
Snow Depth Not available.
UV 12 out of 12
Pollen 6.60 out of 12
Air Quality Not available.
Flu Activity Local Activity
METAR KHRT 061758Z AUTO 17010KT 10SM FEW200 27/15 A3009 RMK AO2 SLP191 T02690153 10269 20203 58012 $

More Conditions Fewer Conditions

Pressure 30.10 in
Visibility 10.0 miles
Clouds Few 20000 ft
Heat Index 81 °F
Dew Point 60 °F
Humidity 49%
Rainfall 0.00 in
Snow Depth Not available.
UV 12 out of 12
Pollen 6.60 out of 12
Air Quality Not available.
Flu Activity Local Activity
METAR KHRT 061758Z AUTO 17010KT 10SM FEW200 27/15 A3009 RMK AO2 SLP191 T02690153 10269 20203 58012 $

More Conditions Fewer Conditions

10-Day Weather Forecast

Almanac

Astronomy

May. 06, 2015 Rise Set
Actual Time
Civil Twilight
Nautical Twilight
Astronomical Twilight
Moon
Length of Visible Light
Length of Day
Tomorrow will be .
, % of the Moon is Illuminated

Today's Extremes

State Highs State Lows

Community

WunderPhotos

Upload Photos

1,818,978 photos uploaded!

WunderBlogs® & News

Nearby

Air Quality

  Air Quality AQ Index Pollutant
Not available.

Snow Depth

Station Depth Elevation

Earthquake Activity

City Distance Mag. Time & Date
Minimum magnitude displayed is 2.5.

Coastal Water Temperatures

Place Temperature

Stations

Nearby Weather Stations

Station Location Temp. Windchill Dew Point Humidity Wind Precip. Elev Updated Type